createdAt,value
2018-12-19T00:02:13.657Z,76.61
2018-12-19T00:04:43.260Z,76.76
2018-12-19T00:07:13.491Z,76.77
2018-12-19T00:09:43.527Z,76.74
2018-12-19T00:12:14.113Z,76.65
2018-12-19T00:14:43.960Z,76.86
2018-12-19T00:17:13.542Z,77.21
2018-12-19T00:19:43.156Z,76.74
2018-12-19T00:22:13.434Z,76.79
2018-12-19T00:24:44.521Z,76.67
2018-12-19T00:27:14.533Z,76.89
2018-12-19T00:29:44.320Z,76.61
2018-12-19T00:32:14.380Z,76.97
2018-12-19T00:34:44.491Z,76.67
2018-12-19T00:37:15.199Z,76.74
2018-12-19T00:39:44.974Z,76.62
2018-12-19T00:42:15.391Z,76.19
2018-12-19T00:44:45.138Z,76.18
2018-12-19T00:47:15.060Z,76.19
2018-12-19T00:49:46.167Z,76.21
2018-12-19T00:52:16.155Z,76.28
2018-12-19T00:54:45.985Z,75.81
2018-12-19T00:57:16.508Z,75.79
2018-12-19T00:59:46.620Z,76.14
2018-12-19T01:02:16.215Z,76.19
2018-12-19T01:04:48.188Z,76.10
2018-12-19T01:07:17.650Z,76.13
2018-12-19T01:09:47.516Z,75.81
2018-12-19T01:12:17.429Z,75.50
2018-12-19T01:14:47.119Z,75.75
2018-12-19T01:17:16.791Z,75.82
2018-12-19T01:19:47.066Z,75.80
2018-12-19T01:22:16.965Z,75.76
2018-12-19T01:24:46.590Z,75.26
2018-12-19T01:27:16.762Z,75.06
2018-12-19T01:29:48.332Z,75.14
2018-12-19T01:32:18.884Z,75.44
2018-12-19T01:34:48.712Z,75.40
2018-12-19T01:37:18.560Z,75.54
2018-12-19T01:39:48.348Z,75.39
2018-12-19T01:42:18.416Z,74.93
2018-12-19T01:44:47.929Z,74.55
2018-12-19T01:47:17.731Z,74.97
2018-12-19T01:49:47.753Z,74.22
2018-12-19T01:52:17.315Z,74.11
2018-12-19T01:54:47.883Z,73.68
2018-12-19T01:57:17.979Z,72.95
2018-12-19T01:59:47.831Z,73.14
2018-12-19T02:02:19.299Z,72.78
2018-12-19T02:04:49.705Z,72.60
2018-12-19T02:07:19.212Z,72.53
2018-12-19T02:09:49.063Z,72.01
2018-12-19T02:12:19.052Z,71.80
2018-12-19T02:14:48.805Z,71.06
2018-12-19T02:17:18.502Z,70.59
2018-12-19T02:19:48.455Z,69.79
2018-12-19T02:22:18.385Z,69.67
2018-12-19T02:24:48.248Z,69.55
2018-12-19T02:27:18.323Z,69.01
2018-12-19T02:29:48.146Z,69.12
2018-12-19T02:32:18.811Z,68.90
2018-12-19T02:34:48.926Z,68.69
2018-12-19T02:37:18.805Z,68.47
2018-12-19T02:39:48.866Z,68.00
2018-12-19T02:42:19.385Z,67.62
2018-12-19T02:44:49.444Z,67.29
2018-12-19T02:47:19.149Z,67.61
2018-12-19T02:49:49.440Z,67.54
2018-12-19T02:52:19.347Z,66.93
2018-12-19T02:54:49.244Z,66.62
2018-12-19T02:57:19.886Z,66.91
2018-12-19T02:59:49.676Z,66.77
2018-12-19T03:02:19.799Z,66.85
2018-12-19T03:04:50.334Z,66.61
2018-12-19T03:07:20.478Z,66.41
2018-12-19T03:09:50.459Z,66.29
2018-12-19T03:12:20.727Z,66.07
2018-12-19T03:14:50.664Z,65.20
2018-12-19T03:17:20.207Z,64.94
2018-12-19T03:19:49.985Z,64.33
2018-12-19T03:22:19.973Z,63.83
2018-12-19T03:24:49.521Z,63.09
2018-12-19T03:27:20.022Z,62.71
2018-12-19T03:29:49.627Z,62.57
2018-12-19T03:32:19.524Z,62.52
2018-12-19T03:34:49.344Z,62.04
2018-12-19T03:37:19.009Z,61.91
2018-12-19T03:39:50.391Z,61.15
2018-12-19T03:42:20.838Z,61.27
2018-12-19T03:44:50.476Z,60.68
2018-12-19T03:47:20.142Z,60.46
2018-12-19T03:49:50.712Z,60.04
2018-12-19T03:52:20.905Z,59.53
2018-12-19T03:54:50.554Z,59.09
2018-12-19T03:57:21.141Z,59.12
2018-12-19T03:59:51.362Z,58.77
2018-12-19T04:02:21.443Z,58.47
2018-12-19T04:04:51.561Z,58.02
2018-12-19T04:07:21.238Z,58.23
2018-12-19T04:09:57.490Z,58.13
2018-12-19T04:12:23.277Z,57.82
2018-12-19T04:14:52.782Z,57.43
2018-12-19T04:17:22.734Z,57.59
2018-12-19T04:19:52.317Z,57.53
2018-12-19T04:22:22.696Z,57.20
2018-12-19T04:24:52.748Z,57.45
2018-12-19T04:27:22.498Z,57.03
2018-12-19T04:29:52.587Z,56.96
2018-12-19T04:32:22.501Z,56.76
2018-12-19T04:34:52.212Z,56.87
2018-12-19T04:37:22.269Z,56.59
2018-12-19T04:39:53.989Z,56.88
2018-12-19T04:42:24.098Z,56.89
2018-12-19T04:44:55.146Z,57.01
2018-12-19T04:47:24.886Z,56.41
2018-12-19T04:49:54.439Z,56.00
2018-12-19T04:52:24.248Z,56.28
2018-12-19T04:54:53.986Z,55.61
2018-12-19T04:57:23.450Z,56.04
2018-12-19T04:59:53.381Z,55.61
2018-12-19T05:02:23.414Z,55.48
2018-12-19T05:04:53.220Z,55.61
2018-12-19T05:07:23.692Z,55.54
2018-12-19T05:09:53.386Z,55.34
2018-12-19T05:12:24.335Z,55.43
2018-12-19T05:14:53.868Z,55.78
2018-12-19T05:17:23.988Z,55.37
2018-12-19T05:19:54.964Z,55.56
2018-12-19T05:22:25.018Z,55.69
2018-12-19T05:24:55.038Z,55.87
2018-12-19T05:27:25.397Z,55.83
2018-12-19T05:29:55.702Z,55.65
2018-12-19T05:32:26.497Z,56.04
2018-12-19T05:34:56.776Z,55.68
2018-12-19T05:37:26.395Z,55.63
2018-12-19T05:39:56.065Z,55.46
2018-12-19T05:42:26.497Z,55.81
2018-12-19T05:44:57.374Z,56.35
2018-12-19T05:47:28.704Z,56.18
2018-12-19T05:49:58.919Z,56.40
2018-12-19T05:52:29.378Z,56.32
2018-12-19T05:54:59.894Z,56.17
2018-12-19T05:57:29.838Z,56.65
2018-12-19T05:59:59.708Z,56.34
2018-12-19T06:02:29.473Z,56.91
2018-12-19T06:05:00.175Z,56.54
2018-12-19T06:07:29.687Z,56.65
2018-12-19T06:10:01.059Z,56.53
2018-12-19T06:12:31.504Z,56.60
2018-12-19T06:15:01.404Z,56.89
2018-12-19T06:17:31.023Z,57.18
2018-12-19T06:20:01.483Z,57.20
2018-12-19T06:22:31.070Z,56.97
2018-12-19T06:25:00.907Z,57.01
2018-12-19T06:27:30.573Z,56.96
2018-12-19T06:31:03.415Z,56.97
2018-12-19T06:33:34.011Z,57.11
2018-12-19T06:36:03.532Z,57.06
2018-12-19T06:38:33.252Z,56.99
2018-12-19T06:41:03.015Z,56.75
2018-12-19T06:43:32.523Z,57.16
2018-12-19T06:46:03.839Z,57.01
2018-12-19T06:48:33.472Z,57.05
2018-12-19T06:51:03.018Z,56.73
2018-12-19T06:53:32.524Z,57.06
2018-12-19T06:56:03.152Z,56.86
2018-12-19T06:58:32.550Z,57.40
2018-12-19T07:01:02.412Z,57.31
2018-12-19T07:03:33.319Z,57.05
2018-12-19T07:06:03.090Z,57.04
2018-12-19T07:08:32.848Z,57.08
2018-12-19T07:11:03.239Z,56.65
2018-12-19T07:13:33.056Z,56.53
2018-12-19T07:16:02.732Z,56.67
2018-12-19T07:18:32.676Z,56.33
2018-12-19T07:21:03.037Z,56.67
2018-12-19T07:23:32.577Z,56.53
2018-12-19T07:26:03.106Z,56.92
2018-12-19T07:28:32.825Z,56.75
2018-12-19T07:31:02.984Z,57.08
2018-12-19T07:33:32.851Z,56.98
2018-12-19T07:36:02.567Z,57.31
2018-12-19T07:38:32.013Z,57.26
2018-12-19T07:41:01.846Z,57.52
2018-12-19T07:43:31.716Z,57.71
2018-12-19T07:46:01.161Z,57.67
2018-12-19T07:48:31.455Z,57.75
2018-12-19T07:51:00.957Z,57.47
2018-12-19T07:53:30.914Z,58.50
2018-12-19T07:56:00.819Z,58.76
2018-12-19T07:58:30.428Z,58.89
2018-12-19T08:00:59.810Z,58.79
2018-12-19T08:03:29.914Z,58.54
2018-12-19T08:05:59.927Z,58.41
2018-12-19T08:08:29.506Z,58.59
2018-12-19T08:10:59.172Z,58.29
2018-12-19T08:13:29.186Z,58.39
2018-12-19T08:15:58.675Z,58.49
2018-12-19T08:18:28.794Z,58.70
2018-12-19T08:20:58.512Z,58.35
2018-12-19T08:23:28.414Z,58.33
2018-12-19T08:25:58.718Z,58.29
2018-12-19T08:28:28.145Z,57.99
2018-12-19T08:30:57.510Z,58.23
2018-12-19T08:33:27.334Z,58.31
2018-12-19T08:35:57.160Z,58.13
2018-12-19T08:38:28.516Z,57.87
2018-12-19T08:40:59.039Z,57.63
2018-12-19T08:43:29.428Z,58.13
2018-12-19T08:45:59.272Z,57.82
2018-12-19T08:48:28.987Z,57.88
2018-12-19T08:50:59.425Z,57.33
2018-12-19T08:53:29.028Z,57.18
2018-12-19T08:55:58.762Z,57.22
2018-12-19T08:58:28.544Z,57.17
2018-12-19T09:00:58.964Z,57.91
2018-12-19T09:03:32.104Z,57.51
2018-12-19T09:06:01.674Z,57.12
2018-12-19T09:08:31.513Z,57.34
2018-12-19T09:11:05.636Z,57.44
2018-12-19T09:13:32.997Z,57.18
2018-12-19T09:16:02.815Z,57.41
2018-12-19T09:18:33.400Z,57.25
2018-12-19T09:21:02.930Z,57.45
2018-12-19T09:23:32.495Z,57.04
2018-12-19T09:26:02.373Z,57.14
2018-12-19T09:28:31.783Z,56.82
2018-12-19T09:31:01.589Z,56.99
2018-12-19T09:33:32.275Z,56.92
2018-12-19T09:36:02.026Z,57.12
2018-12-19T09:38:31.587Z,57.13
2018-12-19T09:41:01.518Z,56.91
2018-12-19T09:43:31.496Z,57.30
2018-12-19T09:46:01.401Z,57.37
2018-12-19T09:48:31.719Z,57.64
2018-12-19T09:51:02.432Z,58.01
2018-12-19T09:53:32.330Z,59.19
2018-12-19T09:56:03.135Z,59.24
2018-12-19T09:58:34.501Z,59.83
2018-12-19T10:01:05.992Z,60.01
2018-12-19T10:03:36.192Z,60.33
2018-12-19T10:06:06.205Z,59.85
2018-12-19T10:08:36.448Z,59.75
2018-12-19T10:11:09.343Z,59.79
2018-12-19T10:13:38.864Z,60.16
2018-12-19T10:16:09.949Z,59.72
2018-12-19T10:18:40.039Z,59.73
2018-12-19T10:21:10.291Z,59.68
2018-12-19T10:23:40.783Z,59.45
2018-12-19T10:26:14.304Z,59.96
2018-12-19T10:28:44.308Z,59.56
2018-12-19T10:31:14.439Z,60.15
2018-12-19T10:33:45.482Z,59.96
2018-12-19T10:36:18.358Z,60.38
2018-12-19T10:38:48.710Z,60.82
2018-12-19T10:41:25.313Z,60.68
2018-12-19T10:43:56.364Z,60.97
2018-12-19T10:46:27.278Z,60.83
2018-12-19T10:48:59.330Z,61.11
2018-12-19T10:51:29.657Z,60.74
2018-12-19T10:54:02.491Z,60.90
2018-12-19T10:56:33.791Z,61.36
2018-12-19T10:59:06.075Z,61.01
2018-12-19T11:01:43.608Z,61.12
2018-12-19T11:04:15.155Z,60.63
2018-12-19T11:06:45.171Z,60.52
2018-12-19T11:09:17.874Z,60.78
2018-12-19T11:11:53.122Z,61.64
2018-12-19T11:14:28.582Z,61.05
2018-12-19T11:17:04.162Z,61.13
2018-12-19T11:19:34.730Z,60.95
2018-12-19T11:22:12.789Z,60.78
2018-12-19T11:24:46.723Z,60.62
2018-12-19T11:27:16.717Z,60.56
2018-12-19T11:29:48.545Z,60.68
2018-12-19T11:32:20.631Z,60.56
2018-12-19T11:34:53.188Z,60.56
2018-12-19T11:37:26.433Z,60.91
2018-12-19T11:39:56.625Z,60.67
2018-12-19T11:42:26.580Z,61.05
2018-12-19T11:44:57.109Z,60.72
2018-12-19T11:47:30.385Z,61.13
2018-12-19T11:49:59.903Z,61.45
2018-12-19T11:52:31.946Z,61.62
2018-12-19T11:55:07.305Z,61.53
2018-12-19T11:57:37.586Z,61.88
2018-12-19T12:00:16.336Z,61.71
2018-12-19T12:02:50.825Z,61.96
2018-12-19T12:05:24.041Z,62.19
2018-12-19T12:07:54.115Z,61.83
2018-12-19T12:10:26.882Z,62.14
2018-12-19T12:12:57.166Z,61.94
2018-12-19T12:15:27.329Z,61.99
2018-12-19T12:17:57.548Z,61.98
2018-12-19T12:20:27.414Z,62.28
2018-12-19T12:22:57.957Z,62.87
2018-12-19T12:29:35.194Z,62.86
2018-12-19T12:32:06.132Z,62.71
2018-12-19T12:34:36.176Z,62.52
2018-12-19T12:37:06.618Z,62.19
2018-12-19T12:39:36.182Z,62.25
2018-12-19T12:42:06.463Z,62.23
2018-12-19T12:44:36.474Z,62.04
2018-12-19T12:47:13.045Z,62.02
2018-12-19T12:49:49.025Z,62.44
2018-12-19T12:52:18.715Z,62.82
2018-12-19T12:54:54.744Z,62.87
2018-12-19T12:57:27.751Z,62.59
2018-12-19T13:00:00.279Z,62.47
2018-12-19T13:02:33.012Z,62.63
2018-12-19T13:05:15.412Z,62.58
2018-12-19T13:07:52.080Z,62.68
2018-12-19T13:10:23.948Z,62.84
2018-12-19T13:12:58.941Z,62.95
2018-12-19T13:18:21.831Z,62.98
2018-12-19T13:21:12.741Z,62.79
2018-12-19T13:24:02.788Z,63.37
2018-12-19T13:26:33.525Z,63.40
2018-12-19T13:29:05.870Z,63.37
2018-12-19T13:31:45.246Z,63.87
2018-12-19T13:34:20.941Z,64.12
2018-12-19T13:36:56.142Z,63.69
2018-12-19T13:39:35.622Z,63.13
2018-12-19T13:42:06.238Z,63.00
2018-12-19T13:44:36.810Z,63.00
2018-12-19T13:47:07.245Z,63.09
2018-12-19T13:49:38.543Z,63.08
2018-12-19T13:52:11.485Z,63.46
2018-12-19T13:54:46.465Z,63.85
2018-12-19T13:57:21.846Z,63.70
2018-12-19T13:59:59.472Z,64.38
2018-12-19T14:02:38.675Z,64.76
2018-12-19T14:05:12.899Z,64.70
2018-12-19T14:07:44.094Z,64.94
2018-12-19T14:10:17.524Z,64.99
2018-12-19T14:12:49.968Z,65.23
2018-12-19T14:15:22.300Z,65.24
2018-12-19T14:17:55.644Z,64.98
2018-12-19T14:20:27.336Z,64.39
2018-12-19T14:22:59.537Z,64.88
2018-12-19T14:25:31.670Z,64.98
2018-12-19T14:28:04.419Z,65.10
2018-12-19T14:30:38.132Z,64.86
2018-12-19T14:33:09.465Z,64.54
2018-12-19T14:35:41.459Z,64.54
2018-12-19T14:38:15.626Z,65.07
2018-12-19T14:40:48.321Z,65.71
2018-12-19T14:43:21.019Z,65.81
2018-12-19T14:45:52.022Z,66.14
2018-12-19T14:48:23.133Z,66.47
2018-12-19T14:50:57.053Z,66.89
2018-12-19T14:53:31.290Z,66.57
2018-12-19T14:56:01.746Z,67.20
2018-12-19T14:58:35.655Z,67.07
2018-12-19T15:01:07.092Z,67.12
2018-12-19T15:03:37.802Z,66.99
2018-12-19T15:06:09.516Z,67.23
2018-12-19T15:08:41.398Z,66.92
2018-12-19T15:11:12.996Z,66.90
2018-12-19T15:13:43.603Z,66.82
2018-12-19T15:16:16.886Z,67.48
2018-12-19T15:18:47.661Z,67.42
2018-12-19T15:21:22.614Z,67.29
2018-12-19T15:23:54.785Z,67.45
2018-12-19T15:26:25.684Z,68.08
2018-12-19T15:28:59.949Z,68.12
2018-12-19T15:31:30.719Z,68.51
2018-12-19T15:34:01.858Z,68.53
2018-12-19T15:36:37.814Z,68.55
2018-12-19T15:39:12.710Z,68.70
2018-12-19T15:41:45.937Z,68.99
2018-12-19T15:44:17.171Z,68.92
2018-12-19T15:46:50.362Z,68.53
2018-12-19T15:49:21.910Z,68.80
2018-12-19T15:51:54.194Z,68.84
2018-12-19T15:54:28.146Z,68.57
2018-12-19T15:57:01.352Z,69.17
2018-12-19T15:59:34.284Z,69.30
2018-12-19T16:02:06.805Z,69.30
2018-12-19T16:04:37.571Z,70.00
2018-12-19T16:07:08.273Z,69.44
2018-12-19T16:09:40.036Z,69.73
2018-12-19T16:12:12.042Z,70.15
2018-12-19T16:14:43.608Z,70.24
2018-12-19T16:17:15.588Z,70.50
2018-12-19T16:19:46.927Z,70.52
2018-12-19T16:22:18.541Z,70.72
2018-12-19T16:24:49.090Z,70.53
2018-12-19T16:27:19.299Z,71.16
2018-12-19T16:29:50.352Z,71.07
2018-12-19T16:32:22.389Z,71.36
2018-12-19T16:34:54.233Z,71.83
2018-12-19T16:37:25.426Z,71.25
2018-12-19T16:39:56.624Z,71.08
2018-12-19T16:42:27.313Z,71.30
2018-12-19T16:44:57.343Z,71.29
2018-12-19T16:47:27.082Z,70.96
2018-12-19T16:50:06.893Z,71.09
2018-12-19T16:52:43.148Z,71.32
2018-12-19T16:55:21.276Z,71.49
2018-12-19T16:57:52.824Z,71.01
2018-12-19T17:00:23.323Z,71.09
2018-12-19T17:02:53.568Z,71.06
2018-12-19T17:05:24.634Z,70.89
2018-12-19T17:07:55.963Z,70.47
2018-12-19T17:10:26.184Z,70.34
2018-12-19T17:12:56.540Z,70.47
2018-12-19T17:15:26.794Z,69.73
2018-12-19T17:17:56.982Z,69.91
2018-12-19T17:20:27.914Z,70.04
2018-12-19T17:22:57.875Z,69.65
2018-12-19T17:25:28.254Z,69.86
2018-12-19T17:27:58.019Z,69.75
2018-12-19T17:30:30.688Z,70.11
2018-12-19T17:33:03.455Z,69.65
2018-12-19T17:35:34.346Z,69.24
2018-12-19T17:38:04.886Z,69.50
2018-12-19T17:40:36.879Z,69.24
2018-12-19T17:43:06.898Z,68.84
2018-12-19T17:45:38.015Z,69.08
2018-12-19T17:48:08.860Z,68.38
2018-12-19T17:50:39.780Z,68.57
2018-12-19T17:53:11.081Z,68.90
2018-12-19T17:55:41.558Z,67.88
2018-12-19T17:58:11.097Z,68.11
2018-12-19T18:00:41.086Z,68.52
2018-12-19T18:03:11.668Z,68.72
2018-12-19T18:05:42.001Z,68.58
2018-12-19T18:08:11.632Z,68.43
2018-12-19T18:10:42.735Z,67.97
2018-12-19T18:13:13.945Z,68.14
2018-12-19T18:15:44.049Z,68.57
2018-12-19T18:18:14.157Z,68.13
2018-12-19T18:20:44.095Z,68.14
2018-12-19T18:23:15.887Z,68.24
2018-12-19T18:25:46.591Z,68.09
2018-12-19T18:28:17.351Z,67.73
2018-12-19T18:30:47.150Z,67.73
2018-12-19T18:33:19.540Z,67.89
2018-12-19T18:35:49.007Z,67.80
2018-12-19T18:38:21.990Z,67.82
2018-12-19T18:40:52.404Z,67.87
2018-12-19T18:43:24.371Z,68.02
2018-12-19T18:45:54.211Z,67.92
2018-12-19T18:48:24.174Z,68.28
2018-12-19T18:50:54.316Z,67.95
2018-12-19T18:53:23.956Z,67.62
2018-12-19T18:55:55.967Z,67.99
2018-12-19T18:58:26.103Z,67.74
2018-12-19T19:00:59.958Z,67.98
2018-12-19T19:03:32.316Z,68.03
2018-12-19T19:06:03.975Z,67.99
2018-12-19T19:08:33.733Z,67.66
2018-12-19T19:11:07.345Z,67.32
2018-12-19T19:13:37.139Z,67.69
2018-12-19T19:16:08.323Z,67.66
2018-12-19T19:18:42.867Z,67.69
2018-12-19T19:21:12.601Z,67.91
2018-12-19T19:23:43.557Z,67.54
2018-12-19T19:26:13.483Z,68.08
2018-12-19T19:28:43.019Z,68.38
2018-12-19T19:31:14.261Z,68.66
2018-12-19T19:33:43.866Z,69.02
2018-12-19T19:36:15.310Z,68.88
2018-12-19T19:38:45.820Z,69.06
2018-12-19T19:41:16.244Z,68.70
2018-12-19T19:43:46.140Z,69.27
2018-12-19T19:46:18.349Z,69.28
2018-12-19T19:48:50.746Z,69.52
2018-12-19T19:51:21.698Z,70.02
2018-12-19T19:53:51.704Z,70.38
2018-12-19T19:56:21.677Z,70.96
2018-12-19T19:58:53.012Z,71.11
2018-12-19T20:01:25.854Z,71.35
2018-12-19T20:03:58.493Z,71.86
2018-12-19T20:06:32.231Z,71.92
2018-12-19T20:09:02.392Z,72.21
2018-12-19T20:11:32.043Z,72.64
2018-12-19T20:14:03.176Z,72.98
2018-12-19T20:16:40.132Z,73.01
2018-12-19T20:19:11.404Z,73.30
2018-12-19T20:21:41.207Z,73.82
2018-12-19T20:24:12.189Z,73.89
2018-12-19T20:26:42.359Z,74.25
2018-12-19T20:29:12.558Z,74.65
2018-12-19T20:31:45.541Z,74.80
2018-12-19T20:34:19.357Z,75.04
2018-12-19T20:36:53.558Z,75.46
2018-12-19T20:39:28.019Z,75.17
2018-12-19T20:41:59.096Z,75.17
2018-12-19T20:44:29.287Z,75.44
2018-12-19T20:47:03.455Z,75.54
2018-12-19T20:49:34.731Z,74.97
2018-12-19T20:52:05.047Z,74.96
2018-12-19T20:54:36.946Z,75.04
2018-12-19T20:57:06.900Z,75.10
2018-12-19T20:59:37.468Z,74.81
2018-12-19T21:02:08.499Z,75.20
2018-12-19T21:04:39.238Z,74.90
2018-12-19T21:07:12.711Z,75.23
2018-12-19T21:09:45.274Z,75.29
2018-12-19T21:12:17.502Z,75.05
2018-12-19T21:14:47.622Z,75.36
2018-12-19T21:17:27.466Z,75.34
2018-12-19T21:20:00.817Z,75.57
2018-12-19T21:22:32.726Z,75.00
2018-12-19T21:25:04.710Z,75.58
2018-12-19T21:27:41.132Z,75.53
2018-12-19T21:30:13.305Z,75.99
2018-12-19T21:32:50.348Z,76.33
2018-12-19T21:35:24.498Z,76.25
2018-12-19T21:37:54.594Z,75.81
2018-12-19T21:40:26.889Z,75.97
2018-12-19T21:42:58.772Z,76.18
2018-12-19T21:45:30.616Z,76.03
2018-12-19T21:48:03.574Z,75.68
2018-12-19T21:50:36.115Z,76.29
2018-12-19T21:53:07.468Z,76.37
2018-12-19T21:55:37.963Z,76.73
2018-12-19T21:58:07.594Z,77.02
2018-12-19T22:00:41.928Z,76.92
2018-12-19T22:03:14.680Z,76.99
2018-12-19T22:05:52.103Z,76.68
2018-12-19T22:08:23.795Z,76.57
2018-12-19T22:10:55.251Z,76.35
2018-12-19T22:13:25.690Z,76.50
2018-12-19T22:15:59.440Z,76.79
2018-12-19T22:18:35.623Z,76.72
2018-12-19T22:21:10.795Z,76.78
2018-12-19T22:23:43.424Z,76.49
2018-12-19T22:26:15.058Z,76.45
2018-12-19T22:28:46.806Z,76.57
2018-12-19T22:31:18.370Z,76.13
2018-12-19T22:33:51.284Z,76.38
2018-12-19T22:36:24.907Z,76.10
2018-12-19T22:38:55.248Z,76.19
2018-12-19T22:41:32.087Z,76.37
2018-12-19T22:44:07.821Z,76.40
2018-12-19T22:46:34.506Z,76.63
2018-12-19T22:49:05.170Z,76.60
2018-12-19T22:51:35.752Z,76.45
2018-12-19T22:54:06.078Z,76.91
2018-12-19T22:56:36.779Z,77.39
2018-12-19T22:59:07.456Z,77.15
2018-12-19T23:01:44.696Z,77.55
2018-12-19T23:04:15.454Z,77.50
2018-12-19T23:06:46.548Z,77.62
2018-12-19T23:09:17.924Z,77.96
2018-12-19T23:11:50.162Z,77.17
2018-12-19T23:14:21.460Z,77.04
2018-12-19T23:16:53.891Z,77.18
2018-12-19T23:19:24.998Z,77.13
2018-12-19T23:21:57.084Z,76.75
2018-12-19T23:24:28.188Z,76.66
2018-12-19T23:26:59.973Z,76.31
2018-12-19T23:29:30.729Z,76.19
2018-12-19T23:32:01.639Z,76.58
2018-12-19T23:34:32.812Z,76.29
2018-12-19T23:37:03.283Z,76.05
2018-12-19T23:39:35.622Z,76.33
2018-12-19T23:42:09.800Z,76.29
2018-12-19T23:44:39.673Z,76.39
2018-12-19T23:47:09.657Z,76.21
2018-12-19T23:49:40.538Z,75.88
2018-12-19T23:52:12.366Z,75.74
2018-12-19T23:54:42.075Z,75.75
2018-12-19T23:57:12.217Z,75.52
2018-12-19T23:59:42.510Z,75.20
